createdAt,value
2023-01-15T00:00:38.766Z,98527.63
2023-01-15T00:03:12.852Z,98528.16
2023-01-15T00:05:47.862Z,98523.06
2023-01-15T00:08:16.455Z,98513.63
2023-01-15T00:10:43.243Z,98507.16
2023-01-15T00:13:10.944Z,98505.22
2023-01-15T00:15:38.090Z,98494.63
2023-01-15T00:18:05.304Z,98490.84
2023-01-15T00:20:32.646Z,98488.16
2023-01-15T00:22:59.447Z,98480.59
2023-01-15T00:25:27.759Z,98469.44
2023-01-15T00:27:54.572Z,98463.47
2023-01-15T00:30:21.834Z,98458.94
2023-01-15T00:32:48.745Z,98457.78
2023-01-15T00:35:18.413Z,98467.56
2023-01-15T00:37:45.515Z,98462.78
2023-01-15T00:40:14.319Z,98463.03
2023-01-15T00:42:42.961Z,98453.78
2023-01-15T00:45:13.598Z,98467.06
2023-01-15T00:47:43.447Z,98451.34
2023-01-15T00:50:14.283Z,98432.56
2023-01-15T00:52:42.052Z,98431.75
2023-01-15T00:55:09.709Z,98427.41
2023-01-15T00:57:36.612Z,98424.19
2023-01-15T01:00:07.079Z,98427.47
2023-01-15T01:02:35.124Z,98419.91
2023-01-15T01:05:02.103Z,98427.78
2023-01-15T01:07:30.042Z,98424.38
2023-01-15T01:09:56.902Z,98412.25
2023-01-15T01:12:23.839Z,98418.53
2023-01-15T01:14:50.650Z,98417.78
2023-01-15T01:17:18.829Z,98415.06
2023-01-15T01:19:45.776Z,98406.44
2023-01-15T01:22:12.725Z,98406.13
2023-01-15T01:24:40.090Z,98407.25
2023-01-15T01:27:07.066Z,98410.81
2023-01-15T01:29:33.941Z,98407.84
2023-01-15T01:32:01.091Z,98401.63
2023-01-15T01:34:29.305Z,98401.94
2023-01-15T01:36:56.108Z,98399.22
2023-01-15T01:39:22.874Z,98396.56
2023-01-15T01:41:49.791Z,98406.84
2023-01-15T01:45:07.134Z,98397.13
2023-01-15T01:47:35.387Z,98384.16
2023-01-15T01:50:11.865Z,98377.13
2023-01-15T01:52:46.059Z,98380.34
2023-01-15T01:55:18.010Z,98373.88
2023-01-15T01:57:47.792Z,98378.75
2023-01-15T02:00:15.642Z,98377.69
2023-01-15T02:02:46.749Z,98372.81
2023-01-15T02:05:33.839Z,98370.63
2023-01-15T02:08:00.993Z,98365.19
2023-01-15T02:10:28.928Z,98357.06
2023-01-15T02:13:07.034Z,98357.88
2023-01-15T02:15:40.325Z,98352.56
2023-01-15T02:18:20.475Z,98358.97
2023-01-15T02:20:57.494Z,98352.19
2023-01-15T02:24:03.219Z,98347.84
2023-01-15T02:26:59.008Z,98356.47
2023-01-15T02:29:38.603Z,98350.28
2023-01-15T02:32:13.381Z,98345.38
2023-01-15T02:34:50.592Z,98332.09
2023-01-15T02:37:26.566Z,98343.78
2023-01-15T02:39:59.265Z,98341.38
2023-01-15T02:42:30.935Z,98332.16
2023-01-15T02:45:01.476Z,98340.03
2023-01-15T02:47:35.968Z,98338.03
2023-01-15T02:50:12.728Z,98348.06
2023-01-15T02:52:47.025Z,98338.66
2023-01-15T02:55:30.258Z,98330.75
2023-01-15T02:58:04.993Z,98339.63
2023-01-15T03:00:43.942Z,98335.31
2023-01-15T03:03:18.391Z,98325.84
2023-01-15T03:05:55.942Z,98316.38
2023-01-15T03:08:23.109Z,98313.63
2023-01-15T03:11:04.963Z,98327.19
2023-01-15T03:13:48.250Z,98305.47
2023-01-15T03:16:26.162Z,98308.19
2023-01-15T03:19:00.995Z,98308.13
2023-01-15T03:21:40.981Z,98301.34
2023-01-15T03:24:12.789Z,98302.16
2023-01-15T03:26:39.945Z,98288.31
2023-01-15T03:29:09.837Z,98293.16
2023-01-15T03:31:37.876Z,98295.09
2023-01-15T03:34:04.968Z,98295.94
2023-01-15T03:36:31.755Z,98299.47
2023-01-15T03:39:01.978Z,98293.00
2023-01-15T03:41:55.986Z,98294.16
2023-01-15T03:44:35.326Z,98289.53
2023-01-15T03:47:20.184Z,98283.03
2023-01-15T03:49:59.653Z,98286.56
2023-01-15T03:52:48.068Z,98293.59
2023-01-15T03:55:22.474Z,98288.75
2023-01-15T03:58:11.082Z,98273.84
2023-01-15T04:00:49.028Z,98270.06
2023-01-15T04:03:20.344Z,98263.88
2023-01-15T04:05:51.654Z,98254.13
2023-01-15T04:08:26.527Z,98248.72
2023-01-15T04:10:55.164Z,98259.53
2023-01-15T04:13:24.213Z,98258.19
2023-01-15T04:15:55.716Z,98245.72
2023-01-15T04:18:23.160Z,98246.00
2023-01-15T04:20:50.008Z,98248.97
2023-01-15T04:23:17.203Z,98236.75
2023-01-15T04:25:44.030Z,98235.44
2023-01-15T04:28:10.879Z,98237.03
2023-01-15T04:30:37.791Z,98240.59
2023-01-15T04:33:06.508Z,98247.09
2023-01-15T04:35:33.309Z,98258.44
2023-01-15T04:38:00.944Z,98318.81
2023-01-15T04:40:28.117Z,98342.19
2023-01-15T04:42:56.228Z,98344.94
2023-01-15T04:45:23.083Z,98350.06
2023-01-15T04:47:49.896Z,98358.50
2023-01-15T04:50:18.205Z,98359.88
2023-01-15T04:52:45.012Z,98362.69
2023-01-15T04:55:11.861Z,98375.31
2023-01-15T04:57:38.777Z,98375.00
2023-01-15T05:00:07.813Z,98376.09
2023-01-15T05:02:34.712Z,98374.38
2023-01-15T05:05:01.648Z,98392.41
2023-01-15T05:07:29.898Z,98389.34
2023-01-15T05:09:56.729Z,98398.19
2023-01-15T05:12:23.683Z,98398.34
2023-01-15T05:14:50.459Z,98384.44
2023-01-15T05:17:17.574Z,98405.78
2023-01-15T05:19:44.402Z,98420.38
2023-01-15T05:22:11.469Z,98428.94
2023-01-15T05:24:39.909Z,98420.03
2023-01-15T05:27:06.734Z,98434.56
2023-01-15T05:29:33.590Z,98448.75
2023-01-15T05:32:00.490Z,98450.91
2023-01-15T05:34:27.342Z,98456.53
2023-01-15T05:36:54.215Z,98458.19
2023-01-15T05:39:20.991Z,98466.75
2023-01-15T05:41:49.275Z,98470.28
2023-01-15T05:44:21.881Z,98458.06
2023-01-15T05:46:50.685Z,98466.16
2023-01-15T05:49:22.166Z,98465.00
2023-01-15T05:51:50.628Z,98468.06
2023-01-15T05:54:21.165Z,98486.00
2023-01-15T05:56:49.414Z,98493.03
2023-01-15T05:59:18.664Z,98492.22
2023-01-15T06:01:45.684Z,98504.16
2023-01-15T06:04:13.546Z,98509.44
2023-01-15T06:06:42.062Z,98511.31
2023-01-15T06:09:09.938Z,98515.41
2023-01-15T06:11:36.721Z,98531.81
2023-01-15T06:14:05.382Z,98521.41
2023-01-15T06:16:32.667Z,98517.88
2023-01-15T06:19:01.556Z,98529.47
2023-01-15T06:21:28.339Z,98520.47
2023-01-15T06:23:56.201Z,98513.88
2023-01-15T06:26:23.671Z,98524.28
2023-01-15T06:28:50.674Z,98527.09
2023-01-15T06:31:21.847Z,98535.84
2023-01-15T06:33:49.197Z,98543.78
2023-01-15T06:36:19.482Z,98555.69
2023-01-15T06:38:46.220Z,98559.84
2023-01-15T06:41:15.843Z,98577.34
2023-01-15T06:43:42.637Z,98588.91
2023-01-15T06:46:09.923Z,98595.75
2023-01-15T06:48:38.210Z,98604.28
2023-01-15T06:51:05.385Z,98600.09
2023-01-15T06:53:32.150Z,98607.00
2023-01-15T06:55:58.895Z,98616.03
2023-01-15T06:58:25.877Z,98617.47
2023-01-15T07:00:52.734Z,98629.47
2023-01-15T07:03:20.151Z,98642.34
2023-01-15T07:05:48.295Z,98639.75
2023-01-15T07:08:15.176Z,98636.09
2023-01-15T07:10:41.962Z,98658.78
2023-01-15T07:13:09.984Z,98658.94
2023-01-15T07:15:38.941Z,98658.94
2023-01-15T07:18:05.851Z,98659.31
2023-01-15T07:20:33.022Z,98675.44
2023-01-15T07:23:01.360Z,98676.66
2023-01-15T07:25:28.219Z,98682.41
2023-01-15T07:27:54.975Z,98676.59
2023-01-15T07:30:21.919Z,98682.09
2023-01-15T07:32:49.970Z,98691.44
2023-01-15T07:35:16.870Z,98675.75
2023-01-15T07:37:43.742Z,98658.88
2023-01-15T07:40:12.755Z,98669.25
2023-01-15T07:42:39.629Z,98691.34
2023-01-15T07:45:08.513Z,98692.41
2023-01-15T07:47:35.365Z,98678.13
2023-01-15T07:50:03.399Z,98691.75
2023-01-15T07:52:30.391Z,98681.56
2023-01-15T07:54:57.527Z,98693.44
2023-01-15T07:57:25.741Z,98706.22
2023-01-15T07:59:52.755Z,98713.91
2023-01-15T08:02:19.673Z,98715.34
2023-01-15T08:04:46.979Z,98717.16
2023-01-15T08:07:14.740Z,98725.44
2023-01-15T08:09:41.993Z,98723.00
2023-01-15T08:12:11.609Z,98745.78
2023-01-15T08:14:40.081Z,98740.09
2023-01-15T08:17:06.947Z,98738.81
2023-01-15T08:19:33.797Z,98746.28
2023-01-15T08:22:00.598Z,98768.22
2023-01-15T08:24:28.033Z,98767.00
2023-01-15T08:26:56.035Z,98762.03
2023-01-15T08:29:23.099Z,98759.13
2023-01-15T08:31:51.245Z,98766.13
2023-01-15T08:34:18.180Z,98763.69
2023-01-15T08:36:45.223Z,98774.22
2023-01-15T08:39:12.429Z,98798.06
2023-01-15T08:41:39.263Z,98788.16
2023-01-15T08:44:06.044Z,98797.25
2023-01-15T08:46:33.038Z,98796.44
2023-01-15T08:49:01.279Z,98804.66
2023-01-15T08:51:28.221Z,98806.13
2023-01-15T08:53:55.054Z,98796.13
2023-01-15T08:56:21.948Z,98806.69
2023-01-15T08:58:48.805Z,98810.84
2023-01-15T09:01:16.991Z,98819.72
2023-01-15T09:03:43.896Z,98818.50
2023-01-15T09:06:12.178Z,98825.78
2023-01-15T09:08:39.899Z,98815.25
2023-01-15T09:11:09.479Z,98824.19
2023-01-15T09:13:37.096Z,98825.19
2023-01-15T09:16:06.910Z,98830.34
2023-01-15T09:18:35.104Z,98845.84
2023-01-15T09:21:01.876Z,98848.09
2023-01-15T09:23:30.969Z,98839.38
2023-01-15T09:26:01.050Z,98845.63
2023-01-15T09:28:32.608Z,98856.00
2023-01-15T09:30:59.909Z,98865.28
2023-01-15T09:33:26.910Z,98887.88
2023-01-15T09:35:54.536Z,98895.28
2023-01-15T09:38:22.044Z,98897.16
2023-01-15T09:40:55.052Z,98907.31
2023-01-15T09:43:50.656Z,98913.13
2023-01-15T09:46:28.637Z,98901.75
2023-01-15T09:49:13.370Z,98906.09
2023-01-15T09:51:54.120Z,98911.28
2023-01-15T09:54:46.677Z,98910.66
2023-01-15T09:57:19.452Z,98918.50
2023-01-15T09:59:50.572Z,98925.97
2023-01-15T10:02:27.062Z,98937.56
2023-01-15T10:05:04.788Z,98932.44
2023-01-15T10:07:45.083Z,98946.69
2023-01-15T10:10:19.825Z,98955.34
2023-01-15T10:12:57.720Z,98963.00
2023-01-15T10:15:35.864Z,98964.03
2023-01-15T10:18:04.819Z,98961.97
2023-01-15T10:21:03.381Z,98962.16
2023-01-15T10:23:36.815Z,98961.56
2023-01-15T10:26:14.600Z,98963.00
2023-01-15T10:29:01.215Z,98952.69
2023-01-15T10:31:48.803Z,98970.66
2023-01-15T10:35:01.069Z,98968.16
2023-01-15T10:37:37.830Z,98972.91
2023-01-15T10:40:29.344Z,98983.66
2023-01-15T10:43:05.077Z,98983.25
2023-01-15T10:45:43.230Z,98973.13
2023-01-15T10:48:30.362Z,98981.16
2023-01-15T10:51:08.350Z,99001.19
2023-01-15T10:53:45.214Z,99003.25
2023-01-15T10:56:26.456Z,98996.88
2023-01-15T10:59:06.262Z,99003.44
2023-01-15T11:01:33.176Z,99016.25
2023-01-15T11:04:01.621Z,99018.75
2023-01-15T11:06:31.533Z,99022.03
2023-01-15T11:09:09.199Z,99019.75
2023-01-15T11:11:45.527Z,99015.44
2023-01-15T11:14:12.450Z,99006.97
2023-01-15T11:16:44.288Z,99001.00
2023-01-15T11:19:27.415Z,99003.88
2023-01-15T11:21:54.673Z,99013.38
2023-01-15T11:24:21.889Z,99009.25
2023-01-15T11:26:53.015Z,99013.34
2023-01-15T11:29:33.525Z,99017.28
2023-01-15T11:32:00.478Z,99010.69
2023-01-15T11:34:28.860Z,99007.81
2023-01-15T11:37:04.351Z,99017.50
2023-01-15T11:39:31.849Z,99004.50
2023-01-15T11:42:00.155Z,99008.41
2023-01-15T11:44:26.954Z,99012.09
2023-01-15T11:46:55.286Z,99001.63
2023-01-15T11:49:22.431Z,99009.44
2023-01-15T11:51:50.814Z,99004.72
2023-01-15T11:54:18.569Z,99005.72
2023-01-15T11:56:47.783Z,99007.19
2023-01-15T11:59:18.807Z,99005.94
2023-01-15T12:01:54.740Z,98997.88
2023-01-15T12:04:33.008Z,98999.69
2023-01-15T12:07:05.108Z,99010.47
2023-01-15T12:10:04.906Z,99011.91
2023-01-15T12:12:54.445Z,99023.22
2023-01-15T12:15:37.629Z,99021.19
2023-01-15T12:18:27.558Z,99028.84
2023-01-15T12:21:03.585Z,99005.09
2023-01-15T12:24:11.771Z,99010.91
2023-01-15T12:26:55.457Z,99027.41
2023-01-15T12:29:28.241Z,99031.53
2023-01-15T12:32:03.062Z,99029.66
2023-01-15T12:34:42.833Z,99039.97
2023-01-15T12:37:17.581Z,99024.72
2023-01-15T12:39:51.966Z,99026.19
2023-01-15T12:42:26.062Z,99029.88
2023-01-15T12:45:01.030Z,99033.16
2023-01-15T12:47:40.007Z,99027.00
2023-01-15T12:50:27.106Z,99030.47
2023-01-15T12:53:04.419Z,99034.22
2023-01-15T12:55:40.735Z,99025.13
2023-01-15T12:58:33.572Z,99031.53
2023-01-15T13:01:13.680Z,99026.81
2023-01-15T13:03:58.119Z,99024.53
2023-01-15T13:06:27.271Z,99022.88
2023-01-15T13:09:02.834Z,99038.78
2023-01-15T13:11:32.023Z,99053.63
2023-01-15T13:13:58.983Z,99057.56
2023-01-15T13:16:48.475Z,99045.38
2023-01-15T13:19:37.073Z,99068.50
2023-01-15T13:22:14.553Z,99059.00
2023-01-15T13:25:23.831Z,99055.47
2023-01-15T13:28:14.672Z,99067.47
2023-01-15T13:31:00.832Z,99053.66
2023-01-15T13:33:38.747Z,99047.88
2023-01-15T13:36:16.122Z,99052.63
2023-01-15T13:38:50.426Z,99051.56
2023-01-15T13:41:22.764Z,99051.97
2023-01-15T13:43:51.001Z,99067.63
2023-01-15T13:46:21.537Z,99058.34
2023-01-15T13:48:52.069Z,99063.09
2023-01-15T13:51:30.212Z,99067.22
2023-01-15T13:54:01.420Z,99068.88
2023-01-15T13:56:31.194Z,99079.84
2023-01-15T13:59:02.321Z,99085.00
2023-01-15T14:01:35.225Z,99080.03
2023-01-15T14:04:06.521Z,99082.91
2023-01-15T14:06:40.322Z,99097.09
2023-01-15T14:09:11.878Z,99109.69
2023-01-15T14:11:56.482Z,99096.91
2023-01-15T14:15:08.510Z,99118.94
2023-01-15T14:18:16.812Z,99112.41
2023-01-15T14:21:24.309Z,99111.75
2023-01-15T14:24:19.557Z,99121.69
2023-01-15T14:27:00.036Z,99125.47
2023-01-15T14:30:07.069Z,99124.84
2023-01-15T14:32:58.624Z,99123.75
2023-01-15T14:35:26.665Z,99118.13
2023-01-15T14:37:57.763Z,99119.13
2023-01-15T14:40:30.052Z,99110.59
2023-01-15T14:43:03.696Z,99121.06
2023-01-15T14:45:36.595Z,99127.06
2023-01-15T14:48:16.270Z,99120.88
2023-01-15T14:50:45.950Z,99121.19
2023-01-15T14:53:34.042Z,99125.94
2023-01-15T14:56:13.985Z,99128.41
2023-01-15T14:58:52.928Z,99129.47
2023-01-15T15:01:52.036Z,99132.13
2023-01-15T15:04:36.945Z,99137.13
2023-01-15T15:07:11.177Z,99148.69
2023-01-15T15:09:44.143Z,99160.66
2023-01-15T15:12:42.376Z,99160.66
2023-01-15T15:15:19.699Z,99165.44
2023-01-15T15:18:01.347Z,99170.81
2023-01-15T15:20:44.034Z,99173.31
2023-01-15T15:23:20.505Z,99170.59
2023-01-15T15:25:59.359Z,99169.78
2023-01-15T15:28:28.720Z,99169.16
2023-01-15T15:30:58.711Z,99159.25
2023-01-15T15:33:38.166Z,99139.81
2023-01-15T15:36:08.548Z,99129.06
2023-01-15T15:38:35.447Z,99144.09
2023-01-15T15:41:10.867Z,99127.78
2023-01-15T15:43:48.757Z,99123.47
2023-01-15T15:46:26.027Z,99119.50
2023-01-15T15:48:58.201Z,99129.63
2023-01-15T15:51:31.785Z,99134.94
2023-01-15T15:54:15.592Z,99124.56
2023-01-15T15:56:50.468Z,99116.50
2023-01-15T15:59:32.542Z,99118.13
2023-01-15T16:02:14.369Z,99103.63
2023-01-15T16:04:47.791Z,99101.34
2023-01-15T16:07:20.865Z,99100.09
2023-01-15T16:09:52.579Z,99092.63
2023-01-15T16:12:21.083Z,99104.56
2023-01-15T16:14:49.822Z,99098.34
2023-01-15T16:17:18.098Z,99092.16
2023-01-15T16:19:47.321Z,99102.78
2023-01-15T16:22:18.124Z,99105.00
2023-01-15T16:24:54.741Z,99095.53
2023-01-15T16:27:31.686Z,99097.16
2023-01-15T16:30:00.797Z,99102.72
2023-01-15T16:32:32.276Z,99104.34
2023-01-15T16:35:08.502Z,99100.63
2023-01-15T16:37:36.206Z,99093.19
2023-01-15T16:40:07.286Z,99085.78
2023-01-15T16:42:39.839Z,99094.63
2023-01-15T16:45:21.877Z,99090.28
2023-01-15T16:48:08.849Z,99070.69
2023-01-15T16:50:38.854Z,99075.44
2023-01-15T16:53:32.041Z,99072.56
2023-01-15T16:55:59.469Z,99063.84
2023-01-15T16:58:36.829Z,99064.44
2023-01-15T17:01:36.335Z,99071.84
2023-01-15T17:04:13.873Z,99072.00
2023-01-15T17:06:42.148Z,99074.28
2023-01-15T17:09:14.822Z,99070.16
2023-01-15T17:11:42.591Z,99066.19
2023-01-15T17:14:20.502Z,99068.66
2023-01-15T17:16:47.721Z,99071.06
2023-01-15T17:19:16.544Z,99069.22
2023-01-15T17:21:44.990Z,99049.66
2023-01-15T17:24:12.301Z,99053.78
2023-01-15T17:26:39.324Z,99052.59
2023-01-15T17:29:06.223Z,99049.50
2023-01-15T17:31:34.681Z,99060.16
2023-01-15T17:34:03.409Z,99050.13
2023-01-15T17:36:31.107Z,99051.75
2023-01-15T17:38:59.221Z,99046.38
2023-01-15T17:41:26.790Z,99055.84
2023-01-15T17:43:53.671Z,99043.84
2023-01-15T17:46:20.648Z,99052.06
2023-01-15T17:48:47.994Z,99041.22
2023-01-15T17:51:16.681Z,99038.50
2023-01-15T17:53:43.648Z,99044.03
2023-01-15T17:56:11.962Z,99045.91
2023-01-15T17:58:39.723Z,99034.72
2023-01-15T18:01:19.162Z,99031.75
2023-01-15T18:03:50.808Z,99038.56
2023-01-15T18:06:22.033Z,99041.63
2023-01-15T18:08:58.714Z,99035.63
2023-01-15T18:11:26.916Z,99027.25
2023-01-15T18:13:53.928Z,99028.63
2023-01-15T18:16:20.744Z,99033.19
2023-01-15T18:18:47.654Z,99028.88
2023-01-15T18:21:14.924Z,99024.91
2023-01-15T18:23:41.677Z,99037.31
2023-01-15T18:26:09.652Z,99032.81
2023-01-15T18:28:38.748Z,99034.50
2023-01-15T18:31:07.012Z,99035.88
2023-01-15T18:33:34.796Z,99029.06
2023-01-15T18:36:03.994Z,99033.19
2023-01-15T18:38:32.455Z,99016.28
2023-01-15T18:41:07.683Z,99015.88
2023-01-15T18:43:34.608Z,99019.72
2023-01-15T18:46:05.953Z,99015.41
2023-01-15T18:48:34.052Z,99004.06
2023-01-15T18:51:07.649Z,99010.63
2023-01-15T18:53:34.497Z,99006.34
2023-01-15T18:56:02.543Z,99009.22
2023-01-15T18:58:30.955Z,99024.41
2023-01-15T19:00:58.141Z,99026.06
2023-01-15T19:03:26.481Z,99022.78
2023-01-15T19:05:53.343Z,99020.69
2023-01-15T19:08:20.426Z,99021.47
2023-01-15T19:10:47.311Z,99017.44
2023-01-15T19:13:14.794Z,99011.84
2023-01-15T19:15:42.329Z,99003.41
2023-01-15T19:18:11.557Z,99010.44
2023-01-15T19:20:41.307Z,99011.44
2023-01-15T19:23:08.216Z,99027.28
2023-01-15T19:25:47.340Z,99017.84
2023-01-15T19:28:18.832Z,99018.31
2023-01-15T19:30:47.947Z,99016.19
2023-01-15T19:33:15.008Z,99018.16
2023-01-15T19:35:43.293Z,99019.19
2023-01-15T19:38:10.777Z,99015.47
2023-01-15T19:40:40.923Z,99014.97
2023-01-15T19:43:09.870Z,99018.09
2023-01-15T19:45:40.721Z,99002.63
2023-01-15T19:48:14.162Z,99005.47
2023-01-15T19:50:47.104Z,98999.75
2023-01-15T19:53:14.526Z,98984.69
2023-01-15T19:55:44.920Z,98976.25
2023-01-15T19:58:16.261Z,98974.81
2023-01-15T20:00:45.969Z,98973.38
2023-01-15T20:03:13.083Z,98969.41
2023-01-15T20:05:42.585Z,98964.25
2023-01-15T20:08:11.275Z,98953.72
2023-01-15T20:10:41.261Z,98953.91
2023-01-15T20:13:13.863Z,98944.41
2023-01-15T20:15:43.909Z,98945.03
2023-01-15T20:18:12.240Z,98940.28
2023-01-15T20:20:39.674Z,98939.44
2023-01-15T20:23:07.166Z,98928.94
2023-01-15T20:25:35.512Z,98922.72
2023-01-15T20:28:02.503Z,98916.06
2023-01-15T20:30:29.464Z,98915.78
2023-01-15T20:33:47.491Z,98914.47
2023-01-15T20:36:15.979Z,98925.72
2023-01-15T20:38:42.857Z,98924.09
2023-01-15T20:41:11.474Z,98916.81
2023-01-15T20:43:38.507Z,98924.44
2023-01-15T20:46:12.400Z,98926.16
2023-01-15T20:48:39.876Z,98921.22
2023-01-15T20:51:11.684Z,98920.22
2023-01-15T20:53:38.902Z,98912.97
2023-01-15T20:56:14.777Z,98911.34
2023-01-15T20:58:42.483Z,98908.09
2023-01-15T21:01:09.814Z,98901.69
2023-01-15T21:03:38.392Z,98900.00
2023-01-15T21:06:07.209Z,98892.75
2023-01-15T21:08:35.469Z,98899.34
2023-01-15T21:11:02.805Z,98884.13
2023-01-15T21:13:31.301Z,98888.25
2023-01-15T21:16:01.701Z,98892.38
2023-01-15T21:18:31.434Z,98874.50
2023-01-15T21:20:58.410Z,98881.69
2023-01-15T21:23:25.641Z,98869.78
2023-01-15T21:26:11.313Z,98867.53
2023-01-15T21:28:39.472Z,98856.44
2023-01-15T21:31:08.407Z,98855.22
2023-01-15T21:33:36.619Z,98854.63
2023-01-15T21:36:06.987Z,98841.09
2023-01-15T21:38:34.246Z,98832.00
2023-01-15T21:41:07.979Z,98836.78
2023-01-15T21:43:35.052Z,98835.75
2023-01-15T21:46:05.065Z,98841.09
2023-01-15T21:48:32.401Z,98840.91
2023-01-15T21:51:02.960Z,98832.22
2023-01-15T21:53:31.285Z,98833.22
2023-01-15T21:55:58.184Z,98829.09
2023-01-15T21:58:25.092Z,98826.88
2023-01-15T22:00:52.106Z,98816.97
2023-01-15T22:03:21.250Z,98799.13
2023-01-15T22:05:48.241Z,98800.38
2023-01-15T22:08:15.119Z,98796.25
2023-01-15T22:10:41.980Z,98790.50
2023-01-15T22:13:08.947Z,98791.34
2023-01-15T22:15:36.019Z,98793.38
2023-01-15T22:18:03.306Z,98783.50
2023-01-15T22:20:31.910Z,98773.59
2023-01-15T22:22:58.743Z,98772.97
2023-01-15T22:25:25.724Z,98772.78
2023-01-15T22:27:52.635Z,98772.38
2023-01-15T22:30:19.783Z,98767.22
2023-01-15T22:32:46.702Z,98760.63
2023-01-15T22:35:13.540Z,98757.09
2023-01-15T22:37:41.836Z,98763.06
2023-01-15T22:40:10.766Z,98755.38
2023-01-15T22:42:37.570Z,98747.16
2023-01-15T22:45:05.444Z,98741.53
2023-01-15T22:47:32.253Z,98744.88
2023-01-15T22:49:59.070Z,98754.47
2023-01-15T22:52:26.316Z,98747.63
2023-01-15T22:54:54.816Z,98741.78
2023-01-15T22:57:21.703Z,98747.91
2023-01-15T22:59:48.583Z,98740.44
2023-01-15T23:02:16.444Z,98736.50
2023-01-15T23:04:43.436Z,98728.09
2023-01-15T23:07:10.276Z,98721.38
2023-01-15T23:09:37.331Z,98719.88
2023-01-15T23:12:05.904Z,98720.06
2023-01-15T23:14:32.872Z,98715.97
2023-01-15T23:17:00.858Z,98719.00
2023-01-15T23:19:27.590Z,98714.13
2023-01-15T23:21:54.556Z,98713.09
2023-01-15T23:24:21.387Z,98710.88
2023-01-15T23:26:48.680Z,98698.97
2023-01-15T23:29:17.229Z,98707.63
2023-01-15T23:31:44.234Z,98700.78
2023-01-15T23:34:11.444Z,98695.25
2023-01-15T23:36:39.148Z,98696.53
2023-01-15T23:39:06.077Z,98697.41
2023-01-15T23:41:32.860Z,98681.75
2023-01-15T23:43:59.854Z,98683.41
2023-01-15T23:46:29.679Z,98674.41
2023-01-15T23:48:56.721Z,98666.41
2023-01-15T23:51:23.567Z,98664.81
2023-01-15T23:53:50.432Z,98663.13
2023-01-15T23:56:17.559Z,98661.50
2023-01-15T23:58:44.574Z,98656.78
